Time;durP1;ratioP1;P1;durP2;ratioP2;P2;SDS_P1;SDS_P2;PMS_P1;PMS_P2;Temp;Humidity;BMP_temperature;BMP_pressure;BME280_temperature;BME280_humidity;BME280_pressure;Samples;Min_cycle;Max_cycle;Signal;HPM_P1;HPM_P2
2023/12/19 00:02:05;;;;;;;2.90;2.70;;;;;;;;;;5061985;28;20041;-92
2023/12/19 00:04:36;;;;;;;3.35;3.05;;;;;;;;;;5047525;28;20052;-92
2023/12/19 00:07:03;;;;;;;4.85;3.22;;;;;;;;;;5039284;28;20111;-91
2023/12/19 00:09:30;;;;;;;3.50;2.97;;;;;;;;;;5047253;28;20072;-92
2023/12/19 00:11:57;;;;;;;5.45;3.17;;;;;;;;;;5047278;28;20079;-91
2023/12/19 00:14:25;;;;;;;3.03;2.83;;;;;;;;;;5059863;28;20049;-91
2023/12/19 00:16:52;;;;;;;3.10;2.85;;;;;;;;;;5061959;28;20050;-92
2023/12/19 00:19:19;;;;;;;3.22;2.83;;;;;;;;;;5063493;28;20076;-92
2023/12/19 00:21:47;;;;;;;3.08;2.83;;;;;;;;;;5047296;28;20069;-92
2023/12/19 00:24:14;;;;;;;2.80;2.60;;;;;;;;;;5044618;28;20143;-90
2023/12/19 00:26:41;;;;;;;2.97;2.67;;;;;;;;;;5062603;28;20100;-91
2023/12/19 00:29:08;;;;;;;3.58;2.70;;;;;;;;;;5081015;28;20057;-90
2023/12/19 00:31:35;;;;;;;3.28;2.97;;;;;;;;;;5043895;28;20057;-91
2023/12/19 00:34:03;;;;;;;2.97;2.78;;;;;;;;;;5051549;28;20045;-92
2023/12/19 00:36:30;;;;;;;3.08;2.78;;;;;;;;;;5060323;28;20049;-90
2023/12/19 00:38:57;;;;;;;4.15;2.78;;;;;;;;;;5060532;28;20049;-91
2023/12/19 00:41:25;;;;;;;3.67;3.35;;;;;;;;;;5038916;28;20050;-91
2023/12/19 00:43:52;;;;;;;3.30;2.95;;;;;;;;;;5044159;28;20057;-91
2023/12/19 00:46:19;;;;;;;3.20;2.60;;;;;;;;;;5046817;28;20079;-91
2023/12/19 00:48:46;;;;;;;3.13;2.92;;;;;;;;;;5046102;28;20433;-92
2023/12/19 00:51:14;;;;;;;3.50;2.60;;;;;;;;;;5044064;28;20462;-91
2023/12/19 00:53:41;;;;;;;3.17;2.63;;;;;;;;;;5059638;28;20514;-91
2023/12/19 00:56:09;;;;;;;2.92;2.63;;;;;;;;;;5061358;28;20473;-94
2023/12/19 00:58:37;;;;;;;2.80;2.60;;;;;;;;;;5046855;28;20056;-88
2023/12/19 01:01:05;;;;;;;3.03;2.83;;;;;;;;;;5045359;28;20049;-93
2023/12/19 01:03:33;;;;;;;2.97;2.65;;;;;;;;;;5059593;28;20056;-92
2023/12/19 01:06:01;;;;;;;2.50;2.30;;;;;;;;;;5060539;28;20072;-91
2023/12/19 01:08:28;;;;;;;3.63;2.67;;;;;;;;;;5046246;28;20045;-91
2023/12/19 01:10:56;;;;;;;3.10;2.90;;;;;;;;;;5046460;28;20518;-92
2023/12/19 01:13:23;;;;;;;2.80;2.60;;;;;;;;;;5046399;28;20077;-90
2023/12/19 01:15:50;;;;;;;4.55;2.85;;;;;;;;;;5046259;28;20135;-91
2023/12/19 01:18:18;;;;;;;2.83;2.60;;;;;;;;;;5045784;28;20063;-92
2023/12/19 01:20:47;;;;;;;4.07;2.95;;;;;;;;;;5045827;28;20147;-94
2023/12/19 01:23:15;;;;;;;3.20;2.90;;;;;;;;;;5042975;28;20520;-91
2023/12/19 01:25:43;;;;;;;2.78;2.47;;;;;;;;;;5059146;28;20053;-91
2023/12/19 01:28:10;;;;;;;3.30;2.75;;;;;;;;;;5060926;28;20049;-91
2023/12/19 01:30:39;;;;;;;2.90;2.60;;;;;;;;;;5045954;28;20118;-90
2023/12/19 01:33:10;;;;;;;4.05;3.15;;;;;;;;;;5043946;28;20048;-92
2023/12/19 01:35:38;;;;;;;3.00;2.80;;;;;;;;;;5042421;28;20504;-89
2023/12/19 01:38:05;;;;;;;2.85;2.65;;;;;;;;;;5060370;28;20049;-93
2023/12/19 01:40:32;;;;;;;2.63;2.42;;;;;;;;;;5046138;28;20053;-91
2023/12/19 01:43:00;;;;;;;2.92;2.72;;;;;;;;;;5058634;28;20024;-90
2023/12/19 01:45:28;;;;;;;3.10;2.80;;;;;;;;;;5069863;28;20140;-90
2023/12/19 01:47:55;;;;;;;3.38;3.10;;;;;;;;;;5058592;28;20544;-91
2023/12/19 01:50:23;;;;;;;3.40;2.85;;;;;;;;;;5045477;28;20052;-91
2023/12/19 01:52:53;;;;;;;4.00;2.95;;;;;;;;;;5045588;28;20458;-91
2023/12/19 01:55:20;;;;;;;4.63;2.83;;;;;;;;;;5033713;28;20046;-90
2023/12/19 01:57:48;;;;;;;2.92;2.63;;;;;;;;;;5058464;28;20052;-92
2023/12/19 02:00:17;;;;;;;3.28;2.97;;;;;;;;;;5044804;28;20057;-91
2023/12/19 02:02:47;;;;;;;2.97;2.60;;;;;;;;;;5031530;28;20096;-92
2023/12/19 02:05:15;;;;;;;3.17;2.88;;;;;;;;;;5041245;28;20057;-91
2023/12/19 02:07:43;;;;;;;3.38;2.97;;;;;;;;;;5058428;28;20497;-90
2023/12/19 02:10:11;;;;;;;2.95;2.65;;;;;;;;;;5060111;28;20053;-91
2023/12/19 02:12:39;;;;;;;3.17;2.88;;;;;;;;;;5047824;28;20088;-90
2023/12/19 02:15:07;;;;;;;3.10;2.80;;;;;;;;;;5059203;28;20080;-90
2023/12/19 02:17:34;;;;;;;3.92;2.45;;;;;;;;;;5044541;28;20076;-90
2023/12/19 02:20:01;;;;;;;3.20;2.60;;;;;;;;;;5044198;28;20052;-90
2023/12/19 02:22:31;;;;;;;3.30;2.83;;;;;;;;;;5057724;28;20045;-91
2023/12/19 02:24:59;;;;;;;4.35;3.20;;;;;;;;;;5057666;28;20076;-90
2023/12/19 02:27:26;;;;;;;3.50;3.00;;;;;;;;;;5035049;28;20477;-93
2023/12/19 02:29:54;;;;;;;3.88;2.97;;;;;;;;;;5041333;28;20124;-90
2023/12/19 02:32:21;;;;;;;3.05;2.60;;;;;;;;;;5050008;28;20130;-91
2023/12/19 02:34:49;;;;;;;4.60;2.78;;;;;;;;;;5057766;28;20052;-90
2023/12/19 02:37:16;;;;;;;3.42;3.00;;;;;;;;;;5060781;28;20056;-90
2023/12/19 02:39:43;;;;;;;3.20;2.90;;;;;;;;;;5044986;28;20049;-90
2023/12/19 02:42:11;;;;;;;2.83;2.63;;;;;;;;;;5042259;28;20068;-91
2023/12/19 02:44:38;;;;;;;3.58;2.78;;;;;;;;;;5057862;28;20049;-91
2023/12/19 02:47:05;;;;;;;3.35;3.00;;;;;;;;;;5059159;28;20053;-91
2023/12/19 02:49:32;;;;;;;2.70;2.50;;;;;;;;;;5044646;28;20111;-91
2023/12/19 02:52:00;;;;;;;4.22;3.10;;;;;;;;;;5044160;28;20049;-92
2023/12/19 02:54:28;;;;;;;3.95;3.10;;;;;;;;;;5053773;28;20099;-91
2023/12/19 02:56:55;;;;;;;3.75;2.92;;;;;;;;;;5029926;28;20418;-90
2023/12/19 02:59:22;;;;;;;4.60;3.08;;;;;;;;;;5077569;28;20457;-90
2023/12/19 03:01:50;;;;;;;4.40;3.20;;;;;;;;;;5052285;28;20046;-90
2023/12/19 03:04:17;;;;;;;2.97;2.75;;;;;;;;;;5051308;28;20053;-92
2023/12/19 03:06:44;;;;;;;3.85;3.28;;;;;;;;;;5044338;28;20060;-91
2023/12/19 03:09:12;;;;;;;3.90;3.13;;;;;;;;;;5044100;28;20056;-91
2023/12/19 03:11:39;;;;;;;4.28;3.20;;;;;;;;;;5043809;28;20103;-90
2023/12/19 03:14:07;;;;;;;5.78;3.10;;;;;;;;;;5042240;28;20099;-90
2023/12/19 03:16:34;;;;;;;3.50;3.20;;;;;;;;;;5052197;28;20057;-89
2023/12/19 03:19:01;;;;;;;3.30;3.00;;;;;;;;;;5044278;28;20572;-90
2023/12/19 03:21:29;;;;;;;3.22;2.92;;;;;;;;;;5044049;28;20147;-91
2023/12/19 03:23:56;;;;;;;3.50;3.20;;;;;;;;;;5043786;28;20072;-89
2023/12/19 03:26:23;;;;;;;4.15;3.10;;;;;;;;;;5056825;28;20077;-89
2023/12/19 03:28:50;;;;;;;4.20;3.30;;;;;;;;;;5057140;28;20119;-90
2023/12/19 03:31:19;;;;;;;3.15;2.85;;;;;;;;;;5048479;28;20042;-90
2023/12/19 03:33:47;;;;;;;4.28;3.88;;;;;;;;;;5056936;28;20053;-90
2023/12/19 03:36:14;;;;;;;4.22;3.53;;;;;;;;;;5056865;28;20045;-90
2023/12/19 03:38:41;;;;;;;4.20;3.67;;;;;;;;;;5056827;28;20053;-90
2023/12/19 03:41:09;;;;;;;3.65;3.30;;;;;;;;;;5026150;28;20046;-90
2023/12/19 03:43:36;;;;;;;3.72;3.40;;;;;;;;;;5043764;28;20056;-90
2023/12/19 03:46:07;;;;;;;4.05;3.20;;;;;;;;;;5042838;28;20099;-90
2023/12/19 03:48:34;;;;;;;5.65;3.60;;;;;;;;;;5056869;28;20073;-91
2023/12/19 03:51:02;;;;;;;5.32;3.80;;;;;;;;;;5057724;28;20496;-90
2023/12/19 03:53:29;;;;;;;5.55;4.00;;;;;;;;;;5043719;28;20080;-90
2023/12/19 03:55:57;;;;;;;4.88;3.85;;;;;;;;;;5043541;28;20049;-89
2023/12/19 03:58:24;;;;;;;3.53;3.22;;;;;;;;;;5056793;28;20401;-89
2023/12/19 04:00:51;;;;;;;6.15;3.53;;;;;;;;;;5057043;28;20061;-91
2023/12/19 04:03:19;;;;;;;4.53;3.35;;;;;;;;;;5059572;28;20045;-90
2023/12/19 04:05:46;;;;;;;3.50;3.20;;;;;;;;;;5044044;28;20099;-89
2023/12/19 04:08:13;;;;;;;4.47;3.35;;;;;;;;;;5027422;28;20049;-93
2023/12/19 04:10:40;;;;;;;3.78;3.40;;;;;;;;;;5043914;28;20103;-91
2023/12/19 04:13:07;;;;;;;5.60;3.90;;;;;;;;;;5044059;28;20103;-91
2023/12/19 04:15:35;;;;;;;3.92;3.40;;;;;;;;;;5070677;28;20053;-90
2023/12/19 04:18:02;;;;;;;3.83;3.42;;;;;;;;;;5057464;28;20058;-90
2023/12/19 04:20:29;;;;;;;7.65;3.55;;;;;;;;;;5031709;28;20056;-90
2023/12/19 04:22:57;;;;;;;3.78;3.35;;;;;;;;;;5058701;28;20060;-91
2023/12/19 04:25:24;;;;;;;4.13;3.72;;;;;;;;;;5047125;28;20106;-91
2023/12/19 04:27:52;;;;;;;3.47;3.20;;;;;;;;;;5047198;28;20049;-91
2023/12/19 04:30:19;;;;;;;4.60;3.58;;;;;;;;;;5040612;28;20076;-91
2023/12/19 04:32:46;;;;;;;3.10;2.90;;;;;;;;;;5042383;28;20050;-90
2023/12/19 04:35:14;;;;;;;3.70;3.40;;;;;;;;;;5045840;28;20550;-91
2023/12/19 04:37:41;;;;;;;3.53;3.22;;;;;;;;;;5047130;28;20053;-91
2023/12/19 04:40:09;;;;;;;4.38;3.47;;;;;;;;;;5044972;28;20057;-92
2023/12/19 04:42:36;;;;;;;5.25;3.72;;;;;;;;;;5057470;28;20049;-93
2023/12/19 04:45:03;;;;;;;7.07;3.80;;;;;;;;;;5038438;28;20478;-90
2023/12/19 04:47:30;;;;;;;4.20;3.58;;;;;;;;;;5046682;28;20053;-90
2023/12/19 04:49:58;;;;;;;3.63;3.28;;;;;;;;;;5047844;28;20056;-89
2023/12/19 04:52:25;;;;;;;3.90;3.47;;;;;;;;;;5059892;28;20205;-90
2023/12/19 04:54:52;;;;;;;3.60;3.30;;;;;;;;;;5059553;28;20107;-91
2023/12/19 04:57:19;;;;;;;4.50;3.45;;;;;;;;;;5062999;28;20113;-91
2023/12/19 04:59:47;;;;;;;4.25;3.85;;;;;;;;;;5046453;28;20409;-91
2023/12/19 05:02:14;;;;;;;3.67;3.42;;;;;;;;;;5043665;28;20045;-90
2023/12/19 05:04:41;;;;;;;5.10;3.58;;;;;;;;;;5059782;28;20100;-90
2023/12/19 05:07:09;;;;;;;5.10;3.50;;;;;;;;;;5044776;28;20050;-90
2023/12/19 05:09:36;;;;;;;5.88;3.95;;;;;;;;;;5046522;28;20404;-92
2023/12/19 05:12:04;;;;;;;3.60;3.30;;;;;;;;;;5045423;28;20045;-91
2023/12/19 05:14:31;;;;;;;3.83;3.53;;;;;;;;;;5042588;28;20552;-91
2023/12/19 05:16:59;;;;;;;3.90;3.47;;;;;;;;;;5060165;28;20065;-90
2023/12/19 05:19:27;;;;;;;5.88;3.88;;;;;;;;;;5046129;28;20110;-88
2023/12/19 05:21:54;;;;;;;4.25;3.75;;;;;;;;;;5030007;28;20052;-91
2023/12/19 05:24:21;;;;;;;4.45;3.85;;;;;;;;;;5035051;28;20053;-90
2023/12/19 05:26:49;;;;;;;4.22;3.42;;;;;;;;;;5036549;28;20046;-90
2023/12/19 05:29:16;;;;;;;6.57;3.50;;;;;;;;;;5070476;28;20421;-90
2023/12/19 05:31:43;;;;;;;4.18;3.78;;;;;;;;;;5048354;28;20096;-90
2023/12/19 05:34:11;;;;;;;4.25;3.85;;;;;;;;;;5043400;28;20053;-91
2023/12/19 05:36:45;;;;;;;5.63;4.00;;;;;;;;;;5048660;28;20053;-91
2023/12/19 05:39:13;;;;;;;4.55;3.40;;;;;;;;;;5043727;28;20081;-91
2023/12/19 05:41:40;;;;;;;4.72;3.83;;;;;;;;;;5059487;28;20053;-90
2023/12/19 05:44:07;;;;;;;7.18;3.92;;;;;;;;;;5060714;28;20049;-90
2023/12/19 05:46:35;;;;;;;3.60;3.30;;;;;;;;;;5046218;28;20061;-90
2023/12/19 05:49:02;;;;;;;4.53;3.92;;;;;;;;;;5043924;28;20489;-91
2023/12/19 05:51:30;;;;;;;8.88;3.63;;;;;;;;;;5058906;28;20551;-91
2023/12/19 05:53:59;;;;;;;4.30;3.20;;;;;;;;;;5059080;28;20679;-91
2023/12/19 05:56:27;;;;;;;5.35;3.75;;;;;;;;;;5041448;28;20054;-90
2023/12/19 05:58:54;;;;;;;4.57;3.72;;;;;;;;;;5042448;28;20127;-90
2023/12/19 06:01:21;;;;;;;4.40;3.88;;;;;;;;;;5037643;28;20084;-91
2023/12/19 06:03:49;;;;;;;5.50;4.20;;;;;;;;;;5045658;28;20048;-91
2023/12/19 06:06:16;;;;;;;5.38;3.85;;;;;;;;;;5042883;28;20076;-92
2023/12/19 06:08:44;;;;;;;4.22;3.30;;;;;;;;;;5058675;28;20061;-91
2023/12/19 06:11:11;;;;;;;4.72;3.75;;;;;;;;;;5044176;28;20482;-90
2023/12/19 06:13:39;;;;;;;4.05;3.65;;;;;;;;;;5046513;28;20045;-90
2023/12/19 06:16:06;;;;;;;4.35;3.60;;;;;;;;;;5043951;28;20045;-90
2023/12/19 06:18:33;;;;;;;4.68;3.90;;;;;;;;;;5058206;28;20100;-90
2023/12/19 06:21:01;;;;;;;6.35;3.97;;;;;;;;;;5059155;28;20109;-90
2023/12/19 06:23:28;;;;;;;5.32;4.05;;;;;;;;;;5045220;28;20532;-90
2023/12/19 06:25:57;;;;;;;5.00;3.88;;;;;;;;;;5044991;28;20045;-90
2023/12/19 06:28:24;;;;;;;5.93;3.58;;;;;;;;;;5058157;28;20059;-89
2023/12/19 06:30:53;;;;;;;9.65;4.35;;;;;;;;;;5058233;28;20064;-89
2023/12/19 06:33:21;;;;;;;5.55;4.55;;;;;;;;;;5034295;28;20053;-89
2023/12/19 06:35:51;;;;;;;6.72;4.47;;;;;;;;;;5057633;28;20050;-90
2023/12/19 06:38:19;;;;;;;5.43;4.13;;;;;;;;;;5061471;28;20493;-89
2023/12/19 06:40:46;;;;;;;5.55;4.18;;;;;;;;;;5044971;28;20049;-90
2023/12/19 06:43:13;;;;;;;5.30;4.20;;;;;;;;;;5061278;28;20041;-90
2023/12/19 06:45:41;;;;;;;4.47;3.78;;;;;;;;;;5061541;28;20072;-90
2023/12/19 06:48:09;;;;;;;4.43;4.03;;;;;;;;;;5058040;28;20055;-90
2023/12/19 06:50:39;;;;;;;4.30;3.60;;;;;;;;;;5057632;28;20405;-90
2023/12/19 06:53:06;;;;;;;5.22;4.30;;;;;;;;;;5059230;28;20076;-90
2023/12/19 06:55:33;;;;;;;6.00;4.30;;;;;;;;;;5045155;28;20114;-91
2023/12/19 06:58:02;;;;;;;5.28;4.45;;;;;;;;;;5043652;28;20049;-90
2023/12/19 07:00:30;;;;;;;5.85;4.05;;;;;;;;;;5057375;28;20467;-91
2023/12/19 07:02:57;;;;;;;5.15;4.22;;;;;;;;;;5057638;28;20103;-89
2023/12/19 07:05:25;;;;;;;4.30;3.90;;;;;;;;;;5038988;28;20060;-89
2023/12/19 07:07:52;;;;;;;7.32;4.32;;;;;;;;;;5045287;28;20052;-90
2023/12/19 07:10:19;;;;;;;8.73;4.32;;;;;;;;;;5044671;28;20055;-90
2023/12/19 07:12:47;;;;;;;6.47;4.43;;;;;;;;;;5044402;28;20049;-89
2023/12/19 07:15:14;;;;;;;4.88;4.20;;;;;;;;;;5045212;28;20051;-90
2023/12/19 07:17:43;;;;;;;5.25;3.95;;;;;;;;;;5044148;28;20497;-91
2023/12/19 07:20:11;;;;;;;5.53;3.85;;;;;;;;;;5041870;28;20053;-91
2023/12/19 07:22:38;;;;;;;8.15;4.28;;;;;;;;;;5057285;28;20054;-93
2023/12/19 07:25:05;;;;;;;4.97;4.47;;;;;;;;;;5040688;28;20056;-91
2023/12/19 07:27:34;;;;;;;7.63;4.68;;;;;;;;;;5031565;28;20045;-91
2023/12/19 07:30:05;;;;;;;9.52;6.05;;;;;;;;;;5043000;28;20504;-91
2023/12/19 07:32:33;;;;;;;7.80;6.20;;;;;;;;;;5051658;28;20136;-89
2023/12/19 07:35:00;;;;;;;29.13;17.13;;;;;;;;;;5030658;28;20048;-91
2023/12/19 07:37:28;;;;;;;5.38;4.30;;;;;;;;;;5057430;28;20394;-89
2023/12/19 07:39:55;;;;;;;5.38;4.18;;;;;;;;;;5057497;28;20049;-91
2023/12/19 07:42:22;;;;;;;6.05;4.63;;;;;;;;;;5060914;28;20411;-91
2023/12/19 07:44:51;;;;;;;9.27;4.50;;;;;;;;;;5044363;28;20053;-88
2023/12/19 07:47:18;;;;;;;5.25;4.75;;;;;;;;;;5040560;28;20369;-90
2023/12/19 07:49:46;;;;;;;5.18;4.53;;;;;;;;;;5057202;28;20053;-89
2023/12/19 07:52:14;;;;;;;5.18;4.63;;;;;;;;;;5056693;28;20124;-90
2023/12/19 07:54:41;;;;;;;5.22;4.22;;;;;;;;;;5057193;28;20085;-90
2023/12/19 07:57:08;;;;;;;5.05;4.53;;;;;;;;;;5055243;28;20039;-90
2023/12/19 07:59:35;;;;;;;7.32;4.90;;;;;;;;;;5062100;28;20048;-90
2023/12/19 08:02:03;;;;;;;9.13;4.68;;;;;;;;;;5045807;28;20052;-91
2023/12/19 08:04:30;;;;;;;6.22;4.88;;;;;;;;;;5034124;28;20049;-92
2023/12/19 08:06:58;;;;;;;4.97;4.47;;;;;;;;;;5047615;28;20045;-91
2023/12/19 08:09:26;;;;;;;7.20;4.65;;;;;;;;;;5060577;28;20073;-90
2023/12/19 08:11:55;;;;;;;6.80;4.43;;;;;;;;;;5060423;28;20092;-90
2023/12/19 08:14:25;;;;;;;6.32;4.60;;;;;;;;;;5048927;28;20049;-91
2023/12/19 08:16:52;;;;;;;5.35;3.95;;;;;;;;;;5040350;28;20049;-91
2023/12/19 08:19:20;;;;;;;5.45;4.38;;;;;;;;;;5043697;28;20454;-90
2023/12/19 08:21:51;;;;;;;5.28;4.10;;;;;;;;;;5060708;28;20045;-90
2023/12/19 08:24:19;;;;;;;5.35;4.47;;;;;;;;;;5063443;28;20048;-90
2023/12/19 08:26:50;;;;;;;5.07;4.20;;;;;;;;;;5047297;28;20049;-90
2023/12/19 08:29:17;;;;;;;8.38;4.57;;;;;;;;;;5042469;28;20458;-91
2023/12/19 08:31:46;;;;;;;5.95;4.30;;;;;;;;;;5038049;28;20071;-91
2023/12/19 08:34:16;;;;;;;5.60;4.40;;;;;;;;;;5042355;28;20139;-90
2023/12/19 08:36:44;;;;;;;5.97;4.70;;;;;;;;;;5042148;28;20408;-90
2023/12/19 08:39:12;;;;;;;5.18;4.68;;;;;;;;;;5042586;28;20050;-90
2023/12/19 08:41:39;;;;;;;8.43;5.00;;;;;;;;;;5036039;28;20060;-93
2023/12/19 08:44:06;;;;;;;5.68;4.40;;;;;;;;;;5045734;28;20083;-93
2023/12/19 08:46:34;;;;;;;6.65;4.63;;;;;;;;;;5060039;28;20482;-90
2023/12/19 08:49:02;;;;;;;10.32;5.70;;;;;;;;;;5068387;28;20413;-91
2023/12/19 08:51:29;;;;;;;6.93;5.45;;;;;;;;;;5044511;28;20057;-91
2023/12/19 08:53:57;;;;;;;5.85;4.90;;;;;;;;;;5059711;28;20048;-90
2023/12/19 08:56:24;;;;;;;6.78;5.05;;;;;;;;;;5048608;28;20053;-91
2023/12/19 08:58:52;;;;;;;6.35;4.63;;;;;;;;;;5048002;28;20059;-92
2023/12/19 09:01:19;;;;;;;6.00;5.35;;;;;;;;;;5043356;28;20049;-91
2023/12/19 09:03:48;;;;;;;6.70;5.15;;;;;;;;;;5059679;28;20045;-92
2023/12/19 09:06:15;;;;;;;7.80;4.47;;;;;;;;;;5045681;28;20175;-93
2023/12/19 09:08:43;;;;;;;8.07;4.50;;;;;;;;;;5045840;28;20087;-91
2023/12/19 09:11:10;;;;;;;5.70;5.07;;;;;;;;;;5046200;28;20057;-91
2023/12/19 09:13:38;;;;;;;8.30;4.80;;;;;;;;;;5081584;28;20056;-90
2023/12/19 09:16:09;;;;;;;6.93;4.80;;;;;;;;;;5071554;28;20088;-92
2023/12/19 09:18:36;;;;;;;5.43;4.85;;;;;;;;;;5059520;28;20058;-90
2023/12/19 09:21:04;;;;;;;7.32;4.95;;;;;;;;;;5045853;28;20060;-90
2023/12/19 09:23:31;;;;;;;6.45;5.13;;;;;;;;;;5046830;28;20049;-91
2023/12/19 09:25:58;;;;;;;6.68;5.22;;;;;;;;;;5046157;28;20060;-91
2023/12/19 09:28:29;;;;;;;5.47;4.68;;;;;;;;;;5043783;28;20418;-92
2023/12/19 09:30:57;;;;;;;7.15;5.30;;;;;;;;;;5059693;28;20056;-91
2023/12/19 09:33:24;;;;;;;8.20;5.30;;;;;;;;;;5046067;28;20504;-90
2023/12/19 09:35:52;;;;;;;6.18;4.95;;;;;;;;;;5045022;28;20045;-91
2023/12/19 09:38:19;;;;;;;5.25;4.75;;;;;;;;;;5042730;28;20481;-91
2023/12/19 09:40:47;;;;;;;6.18;4.90;;;;;;;;;;5058909;28;20053;-91
2023/12/19 09:43:14;;;;;;;4.88;4.45;;;;;;;;;;5061256;28;20092;-91
2023/12/19 09:45:42;;;;;;;5.60;4.63;;;;;;;;;;5046058;28;20096;-91
2023/12/19 09:48:10;;;;;;;5.72;4.47;;;;;;;;;;5043878;28;20132;-90
2023/12/19 09:50:42;;;;;;;6.75;4.30;;;;;;;;;;5059131;28;20046;-91
2023/12/19 09:53:10;;;;;;;4.70;4.20;;;;;;;;;;5056743;28;20045;-91
2023/12/19 09:55:43;;;;;;;7.55;4.55;;;;;;;;;;5035237;28;20076;-91
2023/12/19 09:58:12;;;;;;;5.50;4.22;;;;;;;;;;5044540;28;20132;-91
2023/12/19 10:00:44;;;;;;;6.53;4.10;;;;;;;;;;5058633;28;20111;-91
2023/12/19 10:03:12;;;;;;;6.28;5.13;;;;;;;;;;5055913;28;20120;-91
2023/12/19 10:05:43;;;;;;;5.32;4.80;;;;;;;;;;5021780;28;20053;-93
2023/12/19 10:08:10;;;;;;;5.90;4.70;;;;;;;;;;5049278;28;20049;-90
2023/12/19 10:11:05;;;;;;;5.10;4.53;;;;;;;;;;5045526;28;20052;-92
2023/12/19 10:13:33;;;;;;;6.35;4.78;;;;;;;;;;5040329;28;20045;-92
2023/12/19 10:16:01;;;;;;;7.45;4.68;;;;;;;;;;5042509;28;20045;-93
2023/12/19 10:18:54;;;;;;;6.13;4.55;;;;;;;;;;5045444;28;20056;-91
2023/12/19 10:21:23;;;;;;;6.47;4.80;;;;;;;;;;5040417;28;20060;-91
2023/12/19 10:23:50;;;;;;;5.25;4.72;;;;;;;;;;5049304;28;20045;-91
2023/12/19 10:26:28;;;;;;;6.15;5.10;;;;;;;;;;5030613;28;20029;-91
2023/12/19 10:28:57;;;;;;;7.10;5.00;;;;;;;;;;5077788;28;20056;-91
2023/12/19 10:31:24;;;;;;;7.38;5.40;;;;;;;;;;5035521;28;20061;-91
2023/12/19 10:33:56;;;;;;;5.38;4.72;;;;;;;;;;5057702;28;20045;-92
2023/12/19 10:36:28;;;;;;;6.60;5.30;;;;;;;;;;5058191;28;20049;-90
2023/12/19 10:38:56;;;;;;;6.18;5.43;;;;;;;;;;5042368;28;20056;-91
2023/12/19 10:41:25;;;;;;;7.47;5.38;;;;;;;;;;5025164;28;20080;-91
2023/12/19 10:43:56;;;;;;;7.57;5.68;;;;;;;;;;5041565;28;20050;-92
2023/12/19 10:46:30;;;;;;;7.90;5.55;;;;;;;;;;5045440;28;20110;-91
2023/12/19 10:48:59;;;;;;;6.30;5.70;;;;;;;;;;5045630;28;20053;-90
2023/12/19 10:51:33;;;;;;;6.88;5.43;;;;;;;;;;5057894;28;20476;-90
2023/12/19 10:54:08;;;;;;;8.80;5.90;;;;;;;;;;5057791;28;20053;-92
2023/12/19 10:56:46;;;;;;;6.13;5.53;;;;;;;;;;5044106;28;20053;-89
2023/12/19 10:59:19;;;;;;;7.95;6.10;;;;;;;;;;5041887;28;20094;-90
2023/12/19 11:01:49;;;;;;;9.20;6.03;;;;;;;;;;5057871;28;20129;-92
2023/12/19 11:04:20;;;;;;;9.27;6.50;;;;;;;;;;5060153;28;20052;-91
2023/12/19 11:06:49;;;;;;;7.55;6.00;;;;;;;;;;5044389;28;20083;-93
2023/12/19 11:09:19;;;;;;;6.43;5.72;;;;;;;;;;5028664;28;20064;-91
2023/12/19 11:11:47;;;;;;;18.40;6.75;;;;;;;;;;5029090;28;20049;-90
2023/12/19 11:14:15;;;;;;;6.05;5.43;;;;;;;;;;5059696;28;20505;-91
2023/12/19 11:16:46;;;;;;;8.50;6.70;;;;;;;;;;5044317;28;20053;-90
2023/12/19 11:19:22;;;;;;;7.00;5.55;;;;;;;;;;5041587;28;20045;-91
2023/12/19 11:21:56;;;;;;;11.90;6.40;;;;;;;;;;5041471;28;20095;-90
2023/12/19 11:24:26;;;;;;;7.63;6.18;;;;;;;;;;5049089;28;20045;-92
2023/12/19 11:27:00;;;;;;;9.23;6.15;;;;;;;;;;5057237;28;20057;-92
2023/12/19 11:29:46;;;;;;;8.13;5.82;;;;;;;;;;5034487;28;20733;-91
2023/12/19 11:32:36;;;;;;;9.98;6.13;;;;;;;;;;5061121;28;20049;-91
2023/12/19 11:35:09;;;;;;;8.07;6.05;;;;;;;;;;5047581;28;20045;-90
2023/12/19 11:37:36;;;;;;;;;;;;;;;;;;5061439;28;20049;-91
2023/12/19 11:40:05;;;;;;;7.43;5.90;;;;;;;;;;5046035;28;19920;-91
2023/12/19 11:42:39;;;;;;;8.82;6.25;;;;;;;;;;5065472;28;20075;-90
2023/12/19 11:45:16;;;;;;;9.77;7.15;;;;;;;;;;5055606;28;20048;-91
2023/12/19 11:47:50;;;;;;;8.48;5.80;;;;;;;;;;5061231;28;20053;-91
2023/12/19 11:50:36;;;;;;;9.05;6.28;;;;;;;;;;5064497;28;20147;-91
2023/12/19 11:53:04;;;;;;;9.35;6.30;;;;;;;;;;5046567;28;20072;-90
2023/12/19 11:55:31;;;;;;;7.35;6.13;;;;;;;;;;5061036;28;20053;-91
2023/12/19 11:58:11;;;;;;;8.18;6.20;;;;;;;;;;5061003;28;20069;-91
2023/12/19 12:00:39;;;;;;;6.65;5.95;;;;;;;;;;5047933;28;20049;-91
2023/12/19 12:03:11;;;;;;;9.88;7.05;;;;;;;;;;5029280;28;20050;-91
2023/12/19 12:05:39;;;;;;;9.13;6.38;;;;;;;;;;5038476;28;20054;-90
2023/12/19 12:08:13;;;;;;;9.98;7.07;;;;;;;;;;5042286;28;20459;-91
2023/12/19 12:10:43;;;;;;;10.52;7.40;;;;;;;;;;5060166;28;20045;-91
2023/12/19 12:13:13;;;;;;;8.63;6.80;;;;;;;;;;5060362;28;20057;-91
2023/12/19 12:15:41;;;;;;;9.95;6.97;;;;;;;;;;5060660;28;20076;-91
2023/12/19 12:18:09;;;;;;;11.38;7.70;;;;;;;;;;5061733;28;20053;-93
2023/12/19 12:20:37;;;;;;;8.23;6.70;;;;;;;;;;5042401;28;20057;-90
2023/12/19 12:23:04;;;;;;;8.77;7.40;;;;;;;;;;5049919;28;20115;-91
2023/12/19 12:25:31;;;;;;;8.48;7.20;;;;;;;;;;5038981;28;20061;-89
2023/12/19 12:28:09;;;;;;;8.02;7.15;;;;;;;;;;5041019;28;20053;-90
2023/12/19 12:30:38;;;;;;;8.15;7.00;;;;;;;;;;5060203;28;20107;-91
2023/12/19 12:33:06;;;;;;;8.45;6.80;;;;;;;;;;5061469;28;20088;-91
2023/12/19 12:35:35;;;;;;;8.35;7.00;;;;;;;;;;5047142;28;20086;-90
2023/12/19 12:38:10;;;;;;;8.75;6.32;;;;;;;;;;5045714;28;20080;-90
2023/12/19 12:40:38;;;;;;;8.88;7.05;;;;;;;;;;5060085;28;20051;-90
2023/12/19 12:43:24;;;;;;;8.50;6.97;;;;;;;;;;5060465;28;20069;-90
2023/12/19 12:46:01;;;;;;;8.55;6.93;;;;;;;;;;5038988;28;20069;-90
2023/12/19 12:48:29;;;;;;;8.95;6.88;;;;;;;;;;5040814;28;20489;-93
2023/12/19 12:50:56;;;;;;;7.88;6.07;;;;;;;;;;5046919;28;20080;-91
2023/12/19 12:53:24;;;;;;;10.55;7.00;;;;;;;;;;5055571;28;20508;-90
2023/12/19 12:56:05;;;;;;;7.93;6.95;;;;;;;;;;5032236;28;20050;-90
2023/12/19 12:58:33;;;;;;;6.97;5.93;;;;;;;;;;5056681;28;20115;-91
2023/12/19 13:01:00;;;;;;;8.15;6.97;;;;;;;;;;5062407;28;20057;-91
2023/12/19 13:03:28;;;;;;;9.90;6.80;;;;;;;;;;5015588;28;20418;-92
2023/12/19 13:05:56;;;;;;;8.35;6.93;;;;;;;;;;5039867;28;20049;-91
2023/12/19 13:08:23;;;;;;;7.72;6.15;;;;;;;;;;5059772;28;20068;-91
2023/12/19 13:10:50;;;;;;;9.05;6.88;;;;;;;;;;5060857;28;20045;-88
2023/12/19 13:13:17;;;;;;;8.68;6.78;;;;;;;;;;5063811;28;20049;-91
2023/12/19 13:15:44;;;;;;;9.20;6.90;;;;;;;;;;5046643;28;20489;-90
2023/12/19 13:18:12;;;;;;;10.05;6.93;;;;;;;;;;5043670;28;20053;-90
2023/12/19 13:20:39;;;;;;;9.50;7.43;;;;;;;;;;5059892;28;20041;-90
2023/12/19 13:23:07;;;;;;;9.70;7.25;;;;;;;;;;5044293;28;20481;-92
2023/12/19 13:25:34;;;;;;;10.63;7.13;;;;;;;;;;5046085;28;20107;-89
2023/12/19 13:28:04;;;;;;;8.10;6.82;;;;;;;;;;5045737;28;20049;-90
2023/12/19 13:30:31;;;;;;;9.95;7.20;;;;;;;;;;5027358;28;20053;-90
2023/12/19 13:32:59;;;;;;;7.65;6.85;;;;;;;;;;5048294;28;20045;-90
2023/12/19 13:35:26;;;;;;;11.30;7.25;;;;;;;;;;5042425;28;20060;-91
2023/12/19 13:37:54;;;;;;;11.55;7.20;;;;;;;;;;5050687;28;20071;-91
2023/12/19 13:40:21;;;;;;;10.35;7.63;;;;;;;;;;5034744;28;20049;-90
2023/12/19 13:42:49;;;;;;;10.15;7.07;;;;;;;;;;5059539;28;20050;-90
2023/12/19 13:45:16;;;;;;;11.88;8.07;;;;;;;;;;5062308;28;20140;-91
2023/12/19 13:47:44;;;;;;;10.43;7.18;;;;;;;;;;5046931;28;20452;-89
2023/12/19 13:50:12;;;;;;;10.55;7.30;;;;;;;;;;5043838;28;20041;-91
2023/12/19 13:52:42;;;;;;;13.05;8.75;;;;;;;;;;5059386;28;20053;-91
2023/12/19 13:55:11;;;;;;;11.95;7.43;;;;;;;;;;5058612;28;20051;-91
2023/12/19 13:57:39;;;;;;;10.55;8.10;;;;;;;;;;5059613;28;20049;-89
2023/12/19 14:00:07;;;;;;;9.63;7.97;;;;;;;;;;5059019;28;20485;-89
2023/12/19 14:02:38;;;;;;;11.63;7.90;;;;;;;;;;5042271;28;20417;-90
2023/12/19 14:05:07;;;;;;;11.55;7.93;;;;;;;;;;5059661;28;20133;-88
2023/12/19 14:07:37;;;;;;;10.18;7.68;;;;;;;;;;5045363;28;20151;-90
2023/12/19 14:10:07;;;;;;;10.18;7.63;;;;;;;;;;5036108;28;20053;-90
2023/12/19 14:12:35;;;;;;;11.18;7.43;;;;;;;;;;5060488;28;20063;-91
2023/12/19 14:15:04;;;;;;;14.38;7.65;;;;;;;;;;5052889;28;20037;-90
2023/12/19 14:17:31;;;;;;;9.05;6.68;;;;;;;;;;5058185;28;20568;-90
2023/12/19 14:19:59;;;;;;;9.68;7.07;;;;;;;;;;5058472;28;20139;-90
2023/12/19 14:22:26;;;;;;;9.80;7.40;;;;;;;;;;5058179;28;20444;-90
2023/12/19 14:24:54;;;;;;;10.85;7.30;;;;;;;;;;5057983;28;20072;-90
2023/12/19 14:27:22;;;;;;;10.02;7.78;;;;;;;;;;5046253;28;20514;-90
2023/12/19 14:29:50;;;;;;;9.57;7.22;;;;;;;;;;5036513;28;20098;-89
2023/12/19 14:32:17;;;;;;;10.55;7.47;;;;;;;;;;5041913;28;20050;-88
2023/12/19 14:34:45;;;;;;;9.70;7.25;;;;;;;;;;5048679;28;20045;-90
2023/12/19 14:37:12;;;;;;;11.00;7.72;;;;;;;;;;5036799;28;20076;-90
2023/12/19 14:39:40;;;;;;;11.93;7.57;;;;;;;;;;5044945;28;20063;-91
2023/12/19 14:42:08;;;;;;;11.73;7.57;;;;;;;;;;5026743;28;20060;-90
2023/12/19 14:44:38;;;;;;;10.57;7.60;;;;;;;;;;5054708;28;20053;-89
2023/12/19 14:47:08;;;;;;;9.27;7.22;;;;;;;;;;5043362;28;20057;-90
2023/12/19 14:49:37;;;;;;;12.23;8.05;;;;;;;;;;5058430;28;20057;-89
2023/12/19 14:52:05;;;;;;;9.80;7.07;;;;;;;;;;5059164;28;20413;-90